sensor_id;sensor_type;location;lat;lon;timestamp;pressure;altitude;pressure_sealevel;temperature;humidity
9261;BME280;4667;42.726;23.252;2023-09-19T00:02:28;95606.59;;;17.49;57.84
9261;BME280;4667;42.726;23.252;2023-09-19T00:04:54;95601.09;;;17.40;58.05
9261;BME280;4667;42.726;23.252;2023-09-19T00:07:21;95581.22;;;17.28;58.12
9261;BME280;4667;42.726;23.252;2023-09-19T00:09:49;95610.38;;;17.43;58.40
9261;BME280;4667;42.726;23.252;2023-09-19T00:12:17;95570.34;;;17.19;58.39
9261;BME280;4667;42.726;23.252;2023-09-19T00:14:44;95500.69;;;16.68;58.58
9261;BME280;4667;42.726;23.252;2023-09-19T00:17:11;95478.91;;;16.60;58.55
9261;BME280;4667;42.726;23.252;2023-09-19T00:19:39;95601.41;;;17.34;58.87
9261;BME280;4667;42.726;23.252;2023-09-19T00:22:08;95576.72;;;17.23;58.76
9261;BME280;4667;42.726;23.252;2023-09-19T00:24:35;95596.13;;;17.29;59.03
9261;BME280;4667;42.726;23.252;2023-09-19T00:27:03;95590.31;;;17.22;59.40
9261;BME280;4667;42.726;23.252;2023-09-19T00:29:32;95561.09;;;17.11;59.22
9261;BME280;4667;42.726;23.252;2023-09-19T00:31:59;95585.03;;;17.17;59.52
9261;BME280;4667;42.726;23.252;2023-09-19T00:34:26;95560.84;;;17.08;59.24
9261;BME280;4667;42.726;23.252;2023-09-19T00:36:55;95552.94;;;16.98;59.18
9261;BME280;4667;42.726;23.252;2023-09-19T00:39:22;95578.69;;;17.12;59.41
9261;BME280;4667;42.726;23.252;2023-09-19T00:41:51;95519.84;;;16.75;59.49
9261;BME280;4667;42.726;23.252;2023-09-19T00:44:20;95583.50;;;17.10;59.44
9261;BME280;4667;42.726;23.252;2023-09-19T00:46:48;95511.91;;;16.64;59.52
9261;BME280;4667;42.726;23.252;2023-09-19T00:49:16;95590.88;;;17.19;59.52
9261;BME280;4667;42.726;23.252;2023-09-19T00:51:48;95595.13;;;17.20;59.47
9261;BME280;4667;42.726;23.252;2023-09-19T00:54:17;95591.94;;;17.18;59.78
9261;BME280;4667;42.726;23.252;2023-09-19T00:56:45;95552.16;;;16.97;59.96
9261;BME280;4667;42.726;23.252;2023-09-19T00:59:14;95556.41;;;16.98;60.09
9261;BME280;4667;42.726;23.252;2023-09-19T01:01:42;95464.66;;;16.46;59.56
9261;BME280;4667;42.726;23.252;2023-09-19T01:04:11;95250.94;;;15.09;60.01
9261;BME280;4667;42.726;23.252;2023-09-19T01:06:38;95486.94;;;16.55;59.73
9261;BME280;4667;42.726;23.252;2023-09-19T01:09:05;95466.00;;;16.44;59.65
9261;BME280;4667;42.726;23.252;2023-09-19T01:11:38;95589.84;;;17.14;59.89
9261;BME280;4667;42.726;23.252;2023-09-19T01:14:18;95571.56;;;17.03;60.03
9261;BME280;4667;42.726;23.252;2023-09-19T01:16:55;95531.31;;;16.70;60.31
9261;BME280;4667;42.726;23.252;2023-09-19T01:22:48;95523.31;;;16.70;60.39
9261;BME280;4667;42.726;23.252;2023-09-19T01:25:48;95541.16;;;16.70;60.78
9261;BME280;4667;42.726;23.252;2023-09-19T01:28:30;95588.13;;;17.00;60.66
9261;BME280;4667;42.726;23.252;2023-09-19T01:31:04;95536.91;;;16.69;60.61
9261;BME280;4667;42.726;23.252;2023-09-19T01:36:35;95557.94;;;16.70;61.07
9261;BME280;4667;42.726;23.252;2023-09-19T01:39:05;95544.13;;;16.63;61.06
9261;BME280;4667;42.726;23.252;2023-09-19T01:41:44;95601.31;;;16.81;60.74
9261;BME280;4667;42.726;23.252;2023-09-19T01:44:18;95465.28;;;15.94;61.14
9261;BME280;4667;42.726;23.252;2023-09-19T01:46:47;95572.47;;;16.49;61.02
9261;BME280;4667;42.726;23.252;2023-09-19T01:49:22;95596.63;;;16.57;60.97
9261;BME280;4667;42.726;23.252;2023-09-19T01:52:05;95483.66;;;15.85;60.90
9261;BME280;4667;42.726;23.252;2023-09-19T01:54:43;95460.38;;;15.56;60.67
9261;BME280;4667;42.726;23.252;2023-09-19T01:57:17;95481.09;;;15.65;61.49
9261;BME280;4667;42.726;23.252;2023-09-19T01:59:50;95586.16;;;16.22;61.45
9261;BME280;4667;42.726;23.252;2023-09-19T02:02:24;95563.06;;;16.12;61.11
9261;BME280;4667;42.726;23.252;2023-09-19T02:04:52;95529.22;;;15.68;61.76
9261;BME280;4667;42.726;23.252;2023-09-19T02:07:22;95588.91;;;16.01;61.80
9261;BME280;4667;42.726;23.252;2023-09-19T02:09:49;95563.47;;;15.75;62.37
9261;BME280;4667;42.726;23.252;2023-09-19T02:12:16;95590.56;;;15.92;62.53
9261;BME280;4667;42.726;23.252;2023-09-19T02:14:43;95584.72;;;15.90;62.42
9261;BME280;4667;42.726;23.252;2023-09-19T02:17:10;95513.06;;;15.29;62.67
9261;BME280;4667;42.726;23.252;2023-09-19T02:19:39;95581.28;;;15.79;62.63
9261;BME280;4667;42.726;23.252;2023-09-19T02:22:07;95579.44;;;15.75;62.90
9261;BME280;4667;42.726;23.252;2023-09-19T02:24:35;95516.53;;;15.29;63.04
9261;BME280;4667;42.726;23.252;2023-09-19T02:27:03;95582.09;;;15.75;62.89
9261;BME280;4667;42.726;23.252;2023-09-19T02:29:31;95583.19;;;15.69;63.48
9261;BME280;4667;42.726;23.252;2023-09-19T02:31:59;95527.72;;;15.16;63.95
9261;BME280;4667;42.726;23.252;2023-09-19T02:34:28;95572.03;;;15.67;63.77
9261;BME280;4667;42.726;23.252;2023-09-19T02:36:57;95539.59;;;15.49;64.11
9261;BME280;4667;42.726;23.252;2023-09-19T02:39:25;95535.91;;;15.40;64.29
9261;BME280;4667;42.726;23.252;2023-09-19T02:41:54;95569.63;;;15.65;64.19
9261;BME280;4667;42.726;23.252;2023-09-19T02:44:22;95579.75;;;15.48;64.83
9261;BME280;4667;42.726;23.252;2023-09-19T02:46:49;95491.84;;;15.14;64.76
9261;BME280;4667;42.726;23.252;2023-09-19T02:49:16;95435.06;;;14.84;64.43
9261;BME280;4667;42.726;23.252;2023-09-19T02:51:44;95479.66;;;15.13;64.51
9261;BME280;4667;42.726;23.252;2023-09-19T02:54:14;95529.53;;;15.46;64.31
9261;BME280;4667;42.726;23.252;2023-09-19T02:56:43;95523.44;;;15.36;64.50
9261;BME280;4667;42.726;23.252;2023-09-19T02:59:10;95444.91;;;14.68;64.82
9261;BME280;4667;42.726;23.252;2023-09-19T03:01:37;95545.72;;;15.40;64.84
9261;BME280;4667;42.726;23.252;2023-09-19T03:04:05;95539.09;;;15.42;64.91
9261;BME280;4667;42.726;23.252;2023-09-19T03:06:36;95551.59;;;15.47;64.71
9261;BME280;4667;42.726;23.252;2023-09-19T03:09:05;95554.50;;;15.45;64.90
9261;BME280;4667;42.726;23.252;2023-09-19T03:11:39;95544.69;;;15.46;65.00
9261;BME280;4667;42.726;23.252;2023-09-19T03:14:07;95481.03;;;14.95;65.24
9261;BME280;4667;42.726;23.252;2023-09-19T03:16:36;95498.00;;;14.94;65.69
9261;BME280;4667;42.726;23.252;2023-09-19T03:19:03;95460.84;;;14.63;65.37
9261;BME280;4667;42.726;23.252;2023-09-19T03:21:31;95537.03;;;15.03;65.70
9261;BME280;4667;42.726;23.252;2023-09-19T03:23:58;95428.75;;;14.34;65.97
9261;BME280;4667;42.726;23.252;2023-09-19T03:26:25;95465.13;;;14.59;65.66
9261;BME280;4667;42.726;23.252;2023-09-19T03:28:54;95542.88;;;15.11;65.35
9261;BME280;4667;42.726;23.252;2023-09-19T03:31:23;95546.06;;;15.02;65.55
9261;BME280;4667;42.726;23.252;2023-09-19T03:33:50;95503.31;;;14.68;65.54
9261;BME280;4667;42.726;23.252;2023-09-19T03:36:17;95554.03;;;14.87;65.94
9261;BME280;4667;42.726;23.252;2023-09-19T03:38:44;95553.53;;;14.80;65.92
9261;BME280;4667;42.726;23.252;2023-09-19T03:41:11;95499.34;;;14.50;66.07
9261;BME280;4667;42.726;23.252;2023-09-19T03:43:39;95560.69;;;14.85;66.14
9261;BME280;4667;42.726;23.252;2023-09-19T03:46:08;95560.41;;;14.81;66.23
9261;BME280;4667;42.726;23.252;2023-09-19T03:48:34;95562.00;;;14.82;66.27
9261;BME280;4667;42.726;23.252;2023-09-19T03:51:01;95561.22;;;14.66;66.54
9261;BME280;4667;42.726;23.252;2023-09-19T03:53:29;95538.63;;;14.48;66.60
9261;BME280;4667;42.726;23.252;2023-09-19T03:55:55;95528.00;;;14.48;66.80
9261;BME280;4667;42.726;23.252;2023-09-19T03:58:22;95564.13;;;14.70;66.86
9261;BME280;4667;42.726;23.252;2023-09-19T04:00:50;95567.84;;;14.89;66.39
9261;BME280;4667;42.726;23.252;2023-09-19T04:03:19;95567.84;;;14.74;66.56
9261;BME280;4667;42.726;23.252;2023-09-19T04:05:47;95559.06;;;14.63;66.69
9261;BME280;4667;42.726;23.252;2023-09-19T04:08:14;95576.88;;;14.68;66.93
9261;BME280;4667;42.726;23.252;2023-09-19T04:10:42;95570.47;;;14.64;66.50
9261;BME280;4667;42.726;23.252;2023-09-19T04:13:10;95544.16;;;14.47;66.56
9261;BME280;4667;42.726;23.252;2023-09-19T04:15:37;95516.56;;;14.38;66.39
9261;BME280;4667;42.726;23.252;2023-09-19T04:18:06;95431.34;;;13.88;66.62
9261;BME280;4667;42.726;23.252;2023-09-19T04:20:34;95565.72;;;14.71;66.78
9261;BME280;4667;42.726;23.252;2023-09-19T04:23:01;95571.84;;;14.81;66.69
9261;BME280;4667;42.726;23.252;2023-09-19T04:25:30;95558.03;;;14.85;66.24
9261;BME280;4667;42.726;23.252;2023-09-19T04:27:57;95511.84;;;14.50;66.35
9261;BME280;4667;42.726;23.252;2023-09-19T04:30:24;95570.78;;;14.93;66.25
9261;BME280;4667;42.726;23.252;2023-09-19T04:32:52;95481.53;;;14.46;66.08
9261;BME280;4667;42.726;23.252;2023-09-19T04:35:19;95517.38;;;14.89;65.71
9261;BME280;4667;42.726;23.252;2023-09-19T04:37:48;95559.84;;;15.30;65.36
9261;BME280;4667;42.726;23.252;2023-09-19T04:40:15;95565.97;;;15.30;65.63
9261;BME280;4667;42.726;23.252;2023-09-19T04:42:43;95468.56;;;14.70;65.68
9261;BME280;4667;42.726;23.252;2023-09-19T04:45:10;95441.75;;;14.66;65.63
9261;BME280;4667;42.726;23.252;2023-09-19T04:47:38;95523.97;;;15.32;65.39
9261;BME280;4667;42.726;23.252;2023-09-19T04:50:07;95455.25;;;15.00;64.88
9261;BME280;4667;42.726;23.252;2023-09-19T04:52:39;95556.59;;;15.74;64.67
9261;BME280;4667;42.726;23.252;2023-09-19T04:55:11;95553.34;;;15.87;64.27
9261;BME280;4667;42.726;23.252;2023-09-19T04:57:42;95555.66;;;16.04;64.07
9261;BME280;4667;42.726;23.252;2023-09-19T05:00:11;95502.00;;;15.81;63.35
9261;BME280;4667;42.726;23.252;2023-09-19T05:02:40;95517.28;;;16.15;62.53
9261;BME280;4667;42.726;23.252;2023-09-19T05:05:08;95546.44;;;16.35;62.99
9261;BME280;4667;42.726;23.252;2023-09-19T05:07:36;95438.41;;;15.90;62.57
9261;BME280;4667;42.726;23.252;2023-09-19T05:10:04;95549.94;;;16.75;61.95
9261;BME280;4667;42.726;23.252;2023-09-19T05:12:35;95396.75;;;15.75;61.68
9261;BME280;4667;42.726;23.252;2023-09-19T05:15:03;95554.06;;;16.92;61.29
9261;BME280;4667;42.726;23.252;2023-09-19T05:17:30;95548.41;;;16.98;61.18
9261;BME280;4667;42.726;23.252;2023-09-19T05:19:58;95429.66;;;16.29;60.92
9261;BME280;4667;42.726;23.252;2023-09-19T05:22:26;95553.72;;;17.32;59.98
9261;BME280;4667;42.726;23.252;2023-09-19T05:24:53;95556.66;;;17.31;59.70
9261;BME280;4667;42.726;23.252;2023-09-19T05:27:20;95552.34;;;17.35;59.92
9261;BME280;4667;42.726;23.252;2023-09-19T05:29:49;95522.50;;;17.33;59.63
9261;BME280;4667;42.726;23.252;2023-09-19T05:32:18;95545.50;;;17.53;59.27
9261;BME280;4667;42.726;23.252;2023-09-19T05:34:46;95539.81;;;17.59;59.04
9261;BME280;4667;42.726;23.252;2023-09-19T05:37:13;95535.47;;;17.68;59.02
9261;BME280;4667;42.726;23.252;2023-09-19T05:39:42;95533.41;;;17.60;59.10
9261;BME280;4667;42.726;23.252;2023-09-19T05:42:09;95537.44;;;17.58;58.98
9261;BME280;4667;42.726;23.252;2023-09-19T05:44:36;95541.25;;;17.52;59.47
9261;BME280;4667;42.726;23.252;2023-09-19T05:47:05;95531.47;;;17.42;59.98
9261;BME280;4667;42.726;23.252;2023-09-19T05:49:34;95538.69;;;17.65;59.56
9261;BME280;4667;42.726;23.252;2023-09-19T05:52:04;95542.97;;;17.66;59.52
9261;BME280;4667;42.726;23.252;2023-09-19T05:54:31;95541.63;;;17.64;59.63
9261;BME280;4667;42.726;23.252;2023-09-19T05:56:59;95543.22;;;17.65;60.07
9261;BME280;4667;42.726;23.252;2023-09-19T05:59:27;95533.09;;;17.67;59.84
9261;BME280;4667;42.726;23.252;2023-09-19T06:01:54;95532.34;;;17.85;59.94
9261;BME280;4667;42.726;23.252;2023-09-19T06:04:23;95524.50;;;17.94;59.74
9261;BME280;4667;42.726;23.252;2023-09-19T06:06:51;95527.16;;;18.18;59.28
9261;BME280;4667;42.726;23.252;2023-09-19T06:09:19;95525.06;;;18.34;58.14
9261;BME280;4667;42.726;23.252;2023-09-19T06:11:48;95517.84;;;18.34;57.55
9261;BME280;4667;42.726;23.252;2023-09-19T06:14:15;95518.63;;;18.54;57.56
9261;BME280;4667;42.726;23.252;2023-09-19T06:16:43;95509.16;;;18.61;56.77
9261;BME280;4667;42.726;23.252;2023-09-19T06:19:10;95511.38;;;18.73;56.50
9261;BME280;4667;42.726;23.252;2023-09-19T06:21:39;95505.13;;;18.64;56.31
9261;BME280;4667;42.726;23.252;2023-09-19T06:24:06;95509.22;;;18.94;55.49
9261;BME280;4667;42.726;23.252;2023-09-19T06:26:33;95506.53;;;19.08;55.30
9261;BME280;4667;42.726;23.252;2023-09-19T06:29:00;95505.78;;;19.21;54.79
9261;BME280;4667;42.726;23.252;2023-09-19T06:31:32;95513.50;;;19.22;54.89
9261;BME280;4667;42.726;23.252;2023-09-19T06:33:59;95508.78;;;19.47;54.82
9261;BME280;4667;42.726;23.252;2023-09-19T06:36:26;95503.81;;;19.54;53.89
9261;BME280;4667;42.726;23.252;2023-09-19T06:38:55;95499.88;;;19.65;53.70
9261;BME280;4667;42.726;23.252;2023-09-19T06:41:22;95503.75;;;19.73;53.82
9261;BME280;4667;42.726;23.252;2023-09-19T06:43:52;95506.81;;;19.80;53.38
9261;BME280;4667;42.726;23.252;2023-09-19T06:46:20;95494.63;;;20.02;53.34
9261;BME280;4667;42.726;23.252;2023-09-19T06:48:47;95499.78;;;19.98;53.32
9261;BME280;4667;42.726;23.252;2023-09-19T06:51:14;95507.56;;;20.22;52.50
9261;BME280;4667;42.726;23.252;2023-09-19T06:53:42;95513.50;;;20.33;51.30
9261;BME280;4667;42.726;23.252;2023-09-19T06:56:10;95521.22;;;20.34;51.46
9261;BME280;4667;42.726;23.252;2023-09-19T06:58:37;95517.44;;;20.49;51.29
9261;BME280;4667;42.726;23.252;2023-09-19T07:01:04;95516.31;;;20.64;50.69
9261;BME280;4667;42.726;23.252;2023-09-19T07:03:31;95521.09;;;20.75;50.38
9261;BME280;4667;42.726;23.252;2023-09-19T07:05:59;95510.06;;;20.77;49.88
9261;BME280;4667;42.726;23.252;2023-09-19T07:08:25;95514.53;;;20.82;49.53
9261;BME280;4667;42.726;23.252;2023-09-19T07:10:53;95486.44;;;20.57;49.49
9261;BME280;4667;42.726;23.252;2023-09-19T07:13:25;95519.28;;;20.85;49.91
9261;BME280;4667;42.726;23.252;2023-09-19T07:15:52;95513.06;;;20.75;49.23
9261;BME280;4667;42.726;23.252;2023-09-19T07:18:20;95511.47;;;20.97;49.32
9261;BME280;4667;42.726;23.252;2023-09-19T07:20:47;95521.88;;;20.98;49.72
9261;BME280;4667;42.726;23.252;2023-09-19T07:23:15;95519.41;;;21.02;49.51
9261;BME280;4667;42.726;23.252;2023-09-19T07:25:44;95524.16;;;21.05;48.84
9261;BME280;4667;42.726;23.252;2023-09-19T07:28:11;95526.22;;;21.31;48.72
9261;BME280;4667;42.726;23.252;2023-09-19T07:30:40;95504.22;;;20.97;49.04
9261;BME280;4667;42.726;23.252;2023-09-19T07:33:07;95523.72;;;21.12;48.55
9261;BME280;4667;42.726;23.252;2023-09-19T07:35:36;95531.97;;;21.24;47.94
9261;BME280;4667;42.726;23.252;2023-09-19T07:38:05;95528.34;;;21.20;47.62
9261;BME280;4667;42.726;23.252;2023-09-19T07:40:33;95527.97;;;21.35;47.93
9261;BME280;4667;42.726;23.252;2023-09-19T07:43:00;95514.97;;;21.28;48.47
9261;BME280;4667;42.726;23.252;2023-09-19T07:45:29;95521.91;;;21.52;48.79
9261;BME280;4667;42.726;23.252;2023-09-19T07:47:58;95527.66;;;21.68;48.42
9261;BME280;4667;42.726;23.252;2023-09-19T07:50:27;95523.91;;;21.77;47.29
9261;BME280;4667;42.726;23.252;2023-09-19T07:52:54;95527.00;;;21.62;47.73
9261;BME280;4667;42.726;23.252;2023-09-19T07:55:22;95463.03;;;21.64;46.80
9261;BME280;4667;42.726;23.252;2023-09-19T07:57:51;95489.09;;;22.12;46.13
9261;BME280;4667;42.726;23.252;2023-09-19T08:00:18;95517.09;;;22.46;46.19
9261;BME280;4667;42.726;23.252;2023-09-19T08:02:45;95505.06;;;22.35;45.44
9261;BME280;4667;42.726;23.252;2023-09-19T08:05:14;95500.03;;;22.59;45.05
9261;BME280;4667;42.726;23.252;2023-09-19T08:07:43;95503.34;;;22.73;44.86
9261;BME280;4667;42.726;23.252;2023-09-19T08:10:11;95482.13;;;22.72;45.07
9261;BME280;4667;42.726;23.252;2023-09-19T08:12:38;95477.88;;;22.62;44.42
9261;BME280;4667;42.726;23.252;2023-09-19T08:15:13;95499.53;;;23.00;43.88
9261;BME280;4667;42.726;23.252;2023-09-19T08:17:41;95503.78;;;23.19;44.28
9261;BME280;4667;42.726;23.252;2023-09-19T08:20:09;95491.84;;;23.37;42.79
9261;BME280;4667;42.726;23.252;2023-09-19T08:22:44;95491.91;;;23.58;42.32
9261;BME280;4667;42.726;23.252;2023-09-19T08:25:15;95495.63;;;23.83;41.78
9261;BME280;4667;42.726;23.252;2023-09-19T08:27:44;95492.53;;;24.02;41.84
9261;BME280;4667;42.726;23.252;2023-09-19T08:30:13;95503.28;;;24.31;41.55
9261;BME280;4667;42.726;23.252;2023-09-19T08:32:41;95483.13;;;24.29;40.30
9261;BME280;4667;42.726;23.252;2023-09-19T08:35:09;95497.13;;;24.52;40.05
9261;BME280;4667;42.726;23.252;2023-09-19T08:37:36;95498.00;;;24.77;39.92
9261;BME280;4667;42.726;23.252;2023-09-19T08:40:05;95488.44;;;25.00;39.67
9261;BME280;4667;42.726;23.252;2023-09-19T08:42:47;95481.25;;;25.04;38.85
9261;BME280;4667;42.726;23.252;2023-09-19T08:45:16;95491.25;;;25.04;39.95
9261;BME280;4667;42.726;23.252;2023-09-19T08:47:46;95481.47;;;24.99;40.06
9261;BME280;4667;42.726;23.252;2023-09-19T08:50:19;95482.63;;;24.77;39.91
9261;BME280;4667;42.726;23.252;2023-09-19T08:52:47;95451.59;;;24.50;39.12
9261;BME280;4667;42.726;23.252;2023-09-19T08:55:19;95480.53;;;24.62;39.17
9261;BME280;4667;42.726;23.252;2023-09-19T08:57:49;95481.00;;;24.64;40.01
9261;BME280;4667;42.726;23.252;2023-09-19T09:00:16;95484.75;;;24.51;40.32
9261;BME280;4667;42.726;23.252;2023-09-19T09:02:46;95476.06;;;24.45;40.32
9261;BME280;4667;42.726;23.252;2023-09-19T09:05:14;95482.13;;;24.63;40.24
9261;BME280;4667;42.726;23.252;2023-09-19T09:07:48;95453.25;;;24.43;39.76
9261;BME280;4667;42.726;23.252;2023-09-19T09:10:17;95446.34;;;24.33;40.09
9261;BME280;4667;42.726;23.252;2023-09-19T09:12:48;95474.75;;;24.72;40.16
9261;BME280;4667;42.726;23.252;2023-09-19T09:15:15;95465.78;;;24.80;39.99
9261;BME280;4667;42.726;23.252;2023-09-19T09:17:47;95472.06;;;25.18;38.21
9261;BME280;4667;42.726;23.252;2023-09-19T09:20:15;95461.78;;;25.44;38.73
9261;BME280;4667;42.726;23.252;2023-09-19T09:22:51;95427.44;;;25.32;38.45
9261;BME280;4667;42.726;23.252;2023-09-19T09:25:20;95469.09;;;25.56;38.31
9261;BME280;4667;42.726;23.252;2023-09-19T09:27:59;95456.44;;;25.23;38.42
9261;BME280;4667;42.726;23.252;2023-09-19T09:30:34;95451.09;;;25.35;38.82
9261;BME280;4667;42.726;23.252;2023-09-19T09:33:08;95418.22;;;25.09;39.16
9261;BME280;4667;42.726;23.252;2023-09-19T09:35:36;95442.41;;;25.42;38.81
9261;BME280;4667;42.726;23.252;2023-09-19T09:38:04;95437.94;;;25.71;38.16
9261;BME280;4667;42.726;23.252;2023-09-19T09:40:48;95429.59;;;25.88;37.50
9261;BME280;4667;42.726;23.252;2023-09-19T09:43:30;95430.81;;;26.03;36.67
9261;BME280;4667;42.726;23.252;2023-09-19T09:46:21;95434.81;;;26.33;37.01
9261;BME280;4667;42.726;23.252;2023-09-19T09:49:05;95419.31;;;26.58;35.80
9261;BME280;4667;42.726;23.252;2023-09-19T09:51:45;95436.50;;;26.66;35.94
9261;BME280;4667;42.726;23.252;2023-09-19T09:54:23;95438.47;;;26.41;36.01
9261;BME280;4667;42.726;23.252;2023-09-19T09:56:55;95430.81;;;26.55;36.23
9261;BME280;4667;42.726;23.252;2023-09-19T09:59:51;95426.72;;;26.61;35.85
9261;BME280;4667;42.726;23.252;2023-09-19T10:02:19;95425.75;;;26.54;36.34
9261;BME280;4667;42.726;23.252;2023-09-19T10:04:55;95421.41;;;26.37;36.33
9261;BME280;4667;42.726;23.252;2023-09-19T10:07:34;95421.91;;;26.14;36.80
9261;BME280;4667;42.726;23.252;2023-09-19T10:10:04;95419.00;;;26.07;36.85
9261;BME280;4667;42.726;23.252;2023-09-19T10:12:44;95386.13;;;25.93;37.74
9261;BME280;4667;42.726;23.252;2023-09-19T10:15:16;95414.31;;;26.20;37.81
9261;BME280;4667;42.726;23.252;2023-09-19T10:17:46;95422.50;;;26.36;36.67
9261;BME280;4667;42.726;23.252;2023-09-19T10:20:14;95418.78;;;26.53;36.55
9261;BME280;4667;42.726;23.252;2023-09-19T10:23:06;95421.31;;;26.61;35.91
9261;BME280;4667;42.726;23.252;2023-09-19T10:25:39;95412.47;;;26.49;36.42
9261;BME280;4667;42.726;23.252;2023-09-19T10:28:08;95413.59;;;26.35;36.59
9261;BME280;4667;42.726;23.252;2023-09-19T10:30:40;95416.56;;;26.42;36.31
9261;BME280;4667;42.726;23.252;2023-09-19T10:33:11;95414.56;;;26.15;36.93
9261;BME280;4667;42.726;23.252;2023-09-19T10:35:38;95419.66;;;26.04;38.45
9261;BME280;4667;42.726;23.252;2023-09-19T10:38:07;95417.19;;;25.99;37.27
9261;BME280;4667;42.726;23.252;2023-09-19T10:40:35;95408.22;;;25.95;37.50
9261;BME280;4667;42.726;23.252;2023-09-19T10:43:11;95400.91;;;25.96;37.50
9261;BME280;4667;42.726;23.252;2023-09-19T10:45:39;95397.31;;;25.79;37.47
9261;BME280;4667;42.726;23.252;2023-09-19T10:48:07;95401.81;;;25.87;37.31
9261;BME280;4667;42.726;23.252;2023-09-19T10:50:44;95394.59;;;25.91;37.69
9261;BME280;4667;42.726;23.252;2023-09-19T10:53:12;95340.78;;;25.74;37.19
9261;BME280;4667;42.726;23.252;2023-09-19T10:55:41;95390.16;;;26.11;36.83
9261;BME280;4667;42.726;23.252;2023-09-19T10:58:11;95387.53;;;26.15;36.86
9261;BME280;4667;42.726;23.252;2023-09-19T11:00:51;95381.41;;;26.30;36.40
9261;BME280;4667;42.726;23.252;2023-09-19T11:03:20;95383.94;;;26.51;36.19
9261;BME280;4667;42.726;23.252;2023-09-19T11:06:09;95389.72;;;26.65;36.24
9261;BME280;4667;42.726;23.252;2023-09-19T11:08:56;95384.84;;;26.71;36.05
9261;BME280;4667;42.726;23.252;2023-09-19T11:11:42;95382.34;;;26.78;35.76
9261;BME280;4667;42.726;23.252;2023-09-19T11:14:28;95383.69;;;27.00;35.71
9261;BME280;4667;42.726;23.252;2023-09-19T11:17:30;95375.06;;;27.10;35.40
9261;BME280;4667;42.726;23.252;2023-09-19T11:20:17;95383.78;;;27.04;34.79
9261;BME280;4667;42.726;23.252;2023-09-19T11:23:22;95374.03;;;27.15;35.61
9261;BME280;4667;42.726;23.252;2023-09-19T11:25:53;95363.78;;;27.40;35.02
9261;BME280;4667;42.726;23.252;2023-09-19T11:28:31;95361.28;;;27.82;34.18
9261;BME280;4667;42.726;23.252;2023-09-19T11:34:38;95351.47;;;28.52;32.88
9261;BME280;4667;42.726;23.252;2023-09-19T11:40:06;95294.78;;;28.27;32.50
9261;BME280;4667;42.726;23.252;2023-09-19T11:42:42;95337.97;;;28.16;32.91
9261;BME280;4667;42.726;23.252;2023-09-19T11:48:13;95325.75;;;28.45;32.90
9261;BME280;4667;42.726;23.252;2023-09-19T11:50:42;95331.13;;;29.07;31.77
9261;BME280;4667;42.726;23.252;2023-09-19T11:53:10;95328.81;;;29.32;30.99
9261;BME280;4667;42.726;23.252;2023-09-19T11:55:37;95329.00;;;29.20;31.24
9261;BME280;4667;42.726;23.252;2023-09-19T11:58:05;95321.06;;;29.57;30.39
9261;BME280;4667;42.726;23.252;2023-09-19T12:00:34;95291.75;;;30.03;29.87
9261;BME280;4667;42.726;23.252;2023-09-19T12:03:07;95310.63;;;30.57;29.23
9261;BME280;4667;42.726;23.252;2023-09-19T12:05:36;95300.25;;;30.69;29.84
9261;BME280;4667;42.726;23.252;2023-09-19T12:08:03;95300.81;;;30.48;29.39
9261;BME280;4667;42.726;23.252;2023-09-19T12:10:33;95298.84;;;30.83;29.48
9261;BME280;4667;42.726;23.252;2023-09-19T12:13:01;95293.66;;;31.15;28.37
9261;BME280;4667;42.726;23.252;2023-09-19T12:15:28;95284.56;;;31.51;27.02
9261;BME280;4667;42.726;23.252;2023-09-19T12:18:00;95286.09;;;32.22;26.53
9261;BME280;4667;42.726;23.252;2023-09-19T12:20:43;95278.47;;;33.13;25.91
9261;BME280;4667;42.726;23.252;2023-09-19T12:23:13;95281.56;;;33.29;25.31
9261;BME280;4667;42.726;23.252;2023-09-19T12:25:43;95275.34;;;33.00;25.71
9261;BME280;4667;42.726;23.252;2023-09-19T12:28:12;95269.09;;;32.89;26.10
9261;BME280;4667;42.726;23.252;2023-09-19T12:30:39;95273.38;;;33.44;25.32
9261;BME280;4667;42.726;23.252;2023-09-19T12:33:17;95263.59;;;33.50;24.88
9261;BME280;4667;42.726;23.252;2023-09-19T12:35:47;95259.69;;;33.58;25.08
9261;BME280;4667;42.726;23.252;2023-09-19T12:38:25;95265.16;;;33.51;25.31
9261;BME280;4667;42.726;23.252;2023-09-19T12:40:54;95265.00;;;34.01;24.70
9261;BME280;4667;42.726;23.252;2023-09-19T12:43:22;95270.38;;;34.26;24.88
9261;BME280;4667;42.726;23.252;2023-09-19T12:45:49;95254.66;;;34.37;23.99
9261;BME280;4667;42.726;23.252;2023-09-19T12:48:22;95254.38;;;34.21;24.27
9261;BME280;4667;42.726;23.252;2023-09-19T12:51:06;95258.66;;;34.25;24.46
9261;BME280;4667;42.726;23.252;2023-09-19T12:53:34;95254.19;;;34.56;24.11
9261;BME280;4667;42.726;23.252;2023-09-19T12:56:05;95239.00;;;34.37;24.20
9261;BME280;4667;42.726;23.252;2023-09-19T12:58:33;95244.69;;;34.72;23.96
9261;BME280;4667;42.726;23.252;2023-09-19T13:01:01;95230.97;;;34.72;23.81
9261;BME280;4667;42.726;23.252;2023-09-19T13:03:28;95243.00;;;34.85;23.27
9261;BME280;4667;42.726;23.252;2023-09-19T13:05:58;95238.38;;;34.75;23.15
9261;BME280;4667;42.726;23.252;2023-09-19T13:08:29;95236.31;;;34.30;23.79
9261;BME280;4667;42.726;23.252;2023-09-19T13:11:08;95235.59;;;34.19;24.20
9261;BME280;4667;42.726;23.252;2023-09-19T13:13:41;95199.81;;;33.78;25.04
9261;BME280;4667;42.726;23.252;2023-09-19T13:16:09;95233.25;;;34.18;24.39
9261;BME280;4667;42.726;23.252;2023-09-19T13:18:47;95225.31;;;34.37;24.36
9261;BME280;4667;42.726;23.252;2023-09-19T13:21:16;95219.13;;;34.30;24.12
9261;BME280;4667;42.726;23.252;2023-09-19T13:23:53;95215.19;;;34.31;23.76
9261;BME280;4667;42.726;23.252;2023-09-19T13:26:24;95209.16;;;33.95;24.29
9261;BME280;4667;42.726;23.252;2023-09-19T13:28:51;95216.41;;;34.26;23.88
9261;BME280;4667;42.726;23.252;2023-09-19T13:31:18;95212.97;;;34.11;24.23
9261;BME280;4667;42.726;23.252;2023-09-19T13:33:45;95152.16;;;33.75;23.98
9261;BME280;4667;42.726;23.252;2023-09-19T13:36:13;95213.59;;;34.37;23.92
9261;BME280;4667;42.726;23.252;2023-09-19T13:38:40;95200.84;;;34.72;23.85
9261;BME280;4667;42.726;23.252;2023-09-19T13:41:10;95206.28;;;34.75;23.43
9261;BME280;4667;42.726;23.252;2023-09-19T13:43:38;95204.59;;;34.88;23.23